Time;durP1;ratioP1;P1;durP2;ratioP2;P2;SDS_P1;SDS_P2;PMS_P1;PMS_P2;Temp;Humidity;BMP_temperature;BMP_pressure;BME280_temperature;BME280_humidity;BME280_pressure;Samples;Min_cycle;Max_cycle;Signal;HPM_P1;HPM_P2
2023/09/09 00:00:10;;;;;;;7.38;6.53;;;18.20;99.90;;;-141.84;66.43;21126.97;5049615;28;20321;-65
2023/09/09 00:02:40;;;;;;;7.55;6.75;;;18.20;99.90;;;-141.84;66.70;21090.38;5039676;28;20227;-65
2023/09/09 00:05:09;;;;;;;7.70;6.90;;;18.10;99.90;;;-141.84;67.11;21098.50;5042765;28;20233;-64
2023/09/09 00:07:37;;;;;;;7.72;6.75;;;18.10;99.90;;;-141.84;67.55;21082.25;5043148;28;20229;-65
2023/09/09 00:10:06;;;;;;;7.72;7.03;;;18.00;99.90;;;-141.84;68.09;21090.38;5043055;28;20281;-65
2023/09/09 00:12:35;;;;;;;7.57;6.30;;;18.00;99.90;;;-141.84;68.59;21059.88;5042122;28;20236;-65
2023/09/09 00:15:08;;;;;;;8.00;7.20;;;17.90;99.90;;;-141.84;69.03;21029.38;5036763;28;20681;-65
2023/09/09 00:17:36;;;;;;;7.95;6.75;;;17.90;99.90;;;-141.84;69.29;21068.00;5043239;28;20193;-65
2023/09/09 00:20:09;;;;;;;7.90;6.78;;;17.80;99.90;;;-141.84;69.36;21029.38;5042246;28;20267;-64
2023/09/09 00:22:37;;;;;;;7.68;6.85;;;17.80;99.90;;;-141.84;68.80;21039.53;5042588;28;20747;-66
2023/09/09 00:25:06;;;;;;;8.70;7.13;;;17.80;99.90;;;-141.84;68.83;21027.34;5048648;28;20325;-65
2023/09/09 00:27:35;;;;;;;7.93;7.13;;;17.70;99.90;;;-141.84;69.28;21061.91;5062715;28;20252;-64
2023/09/09 00:30:03;;;;;;;8.48;7.63;;;17.70;99.90;;;-141.84;69.31;21049.72;5059982;28;20205;-65
2023/09/09 00:32:32;;;;;;;8.50;7.10;;;17.70;99.90;;;-141.84;69.32;21025.31;5043497;28;20286;-65
2023/09/09 00:35:00;;;;;;;7.93;7.13;;;17.70;99.90;;;-141.84;68.71;21013.13;5034407;28;20245;-67
2023/09/09 00:37:29;;;;;;;8.15;7.35;;;17.70;99.90;;;-141.84;69.35;21017.19;5042232;28;20319;-66
2023/09/09 00:39:57;;;;;;;8.63;7.32;;;17.70;99.90;;;-141.84;69.45;20976.53;5042869;28;20233;-64
2023/09/09 00:42:26;;;;;;;7.65;6.78;;;17.60;99.90;;;-141.84;70.08;21007.00;5042033;28;20279;-65
2023/09/09 00:44:54;;;;;;;8.70;7.38;;;17.60;99.90;;;-141.84;70.86;20980.59;5035812;28;20221;-64
2023/09/09 00:47:25;;;;;;;9.63;7.40;;;17.50;99.90;;;-141.84;70.78;20982.63;5042509;28;20264;-66
2023/09/09 00:49:54;;;;;;;8.25;7.45;;;17.60;99.90;;;-141.84;70.82;20984.66;5041930;28;20225;-65
2023/09/09 00:52:22;;;;;;;7.40;6.70;;;17.60;99.90;;;-141.84;70.85;20958.22;5041909;28;20226;-64
2023/09/09 00:54:53;;;;;;;9.27;8.32;;;17.50;99.90;;;-141.84;71.40;20931.78;5040994;28;20236;-65
2023/09/09 00:57:21;;;;;;;8.52;7.65;;;17.50;99.90;;;-141.84;71.36;20929.75;5041608;28;20275;-64
2023/09/09 00:59:49;;;;;;;8.73;7.82;;;17.50;99.90;;;-141.84;71.69;20962.28;5042464;28;20250;-65
2023/09/09 01:02:17;;;;;;;9.35;7.75;;;17.40;99.90;;;-141.84;72.16;20939.94;5041869;28;20324;-65
2023/09/09 01:04:46;;;;;;;8.63;7.72;;;17.40;99.90;;;-141.84;72.25;20893.16;5034351;28;20225;-65
2023/09/09 01:07:14;;;;;;;8.43;7.47;;;17.40;99.90;;;-141.84;72.36;20915.53;5041996;28;20232;-64
2023/09/09 01:09:42;;;;;;;8.70;7.90;;;17.30;99.90;;;-141.84;72.34;20897.25;5042423;28;20232;-65
2023/09/09 01:12:12;;;;;;;8.75;7.88;;;17.30;99.90;;;-141.84;72.62;20872.84;5042097;28;20244;-65
2023/09/09 01:14:42;;;;;;;9.38;8.05;;;17.30;99.90;;;-141.84;72.87;20864.72;5034933;28;20304;-65
2023/09/09 01:17:11;;;;;;;8.80;7.90;;;17.30;99.90;;;-141.84;73.05;20866.75;5041620;28;20225;-65
2023/09/09 01:19:39;;;;;;;9.02;8.07;;;17.20;99.90;;;-141.84;73.15;20852.50;5041553;28;20233;-64
2023/09/09 01:22:11;;;;;;;8.90;8.00;;;17.20;99.90;;;-141.84;73.18;20850.47;5042216;28;20779;-64
2023/09/09 01:24:43;;;;;;;9.90;8.02;;;17.20;99.90;;;-141.84;72.97;20876.91;5035204;28;20237;-66
2023/09/09 01:27:11;;;;;;;10.85;8.00;;;17.20;99.90;;;-141.84;72.83;20834.22;5022390;28;20685;-65
2023/09/09 01:29:39;;;;;;;8.90;7.47;;;17.20;99.90;;;-141.84;72.81;20864.72;5022659;28;20241;-66
2023/09/09 01:32:07;;;;;;;8.82;7.93;;;17.20;99.90;;;-141.84;72.76;20848.44;5022463;28;20513;-65
2023/09/09 01:34:35;;;;;;;8.20;7.40;;;17.20;99.90;;;-141.84;72.99;20817.94;5022644;28;20321;-65
2023/09/09 01:37:04;;;;;;;9.27;8.13;;;17.10;99.90;;;-141.84;73.38;20771.19;5017178;28;20996;-65
2023/09/09 01:39:32;;;;;;;9.27;8.23;;;17.10;99.90;;;-141.84;73.54;20779.31;5024207;28;20324;-65
2023/09/09 01:42:02;;;;;;;9.18;8.10;;;17.10;99.90;;;-141.84;74.08;20799.66;5021188;28;20731;-65
2023/09/09 01:44:30;;;;;;;8.90;8.00;;;17.00;99.90;;;-141.84;73.74;20789.50;5022197;28;20703;-65
2023/09/09 01:46:59;;;;;;;8.38;7.57;;;17.00;99.90;;;-141.84;73.85;20797.63;5024421;28;20831;-66
2023/09/09 01:49:27;;;;;;;12.07;8.18;;;17.00;99.90;;;-141.84;73.85;20781.38;5042111;28;20706;-66
2023/09/09 01:51:55;;;;;;;9.00;8.00;;;17.00;99.90;;;-141.84;73.96;20775.25;5041758;28;20236;-66
2023/09/09 01:54:23;;;;;;;8.52;7.72;;;17.00;99.90;;;-141.84;74.26;20828.13;5031270;28;20731;-65
2023/09/09 01:56:51;;;;;;;8.20;7.40;;;16.90;99.90;;;-141.84;74.41;20765.09;5034085;28;20704;-65
2023/09/09 01:59:21;;;;;;;9.20;8.25;;;16.90;99.90;;;-141.84;74.32;20756.97;5041236;28;20235;-65
2023/09/09 02:01:49;;;;;;;9.07;7.97;;;16.90;99.90;;;-141.84;74.17;20750.88;5042747;28;20724;-65
2023/09/09 02:04:17;;;;;;;8.80;7.90;;;16.80;99.90;;;-141.84;74.71;20716.31;5045248;28;20981;-65
2023/09/09 02:06:46;;;;;;;9.45;8.48;;;16.90;99.90;;;-141.84;74.98;20716.31;5036744;28;20653;-65
2023/09/09 02:09:14;;;;;;;8.82;7.93;;;16.80;99.90;;;-141.84;74.30;20756.97;5045250;28;20264;-65
2023/09/09 02:11:42;;;;;;;9.48;8.25;;;16.80;99.90;;;-141.84;74.64;20730.53;5045377;28;20205;-65
2023/09/09 02:14:11;;;;;;;10.20;8.38;;;16.80;99.90;;;-141.84;74.75;20700.03;5045536;28;20276;-65
2023/09/09 02:16:40;;;;;;;12.25;8.40;;;16.80;99.90;;;-141.84;74.89;20689.88;5042101;28;20320;-66
2023/09/09 02:19:08;;;;;;;8.98;8.18;;;16.70;99.90;;;-141.84;74.89;20693.94;5042668;28;20221;-65
2023/09/09 02:21:36;;;;;;;8.98;8.07;;;16.70;99.90;;;-141.84;74.83;20663.47;5044536;28;20225;-65
2023/09/09 02:24:05;;;;;;;9.05;8.15;;;16.70;99.90;;;-141.84;74.36;20734.59;5045085;28;20274;-65
2023/09/09 02:26:33;;;;;;;9.40;8.50;;;16.70;99.90;;;-141.84;74.52;20671.59;5045720;28;20264;-65
2023/09/09 02:29:02;;;;;;;9.80;8.80;;;16.70;99.90;;;-141.84;74.98;20681.75;5037423;28;20225;-64
2023/09/09 02:31:30;;;;;;;8.85;8.05;;;16.70;99.90;;;-141.84;75.29;20639.06;5044621;28;20225;-64
2023/09/09 02:33:59;;;;;;;9.50;8.45;;;16.70;99.90;;;-141.84;75.29;20641.09;5045166;28;20275;-64
2023/09/09 02:36:28;;;;;;;8.70;7.80;;;16.60;99.90;;;-141.84;75.40;20645.16;5044832;28;20444;-65
2023/09/09 02:38:56;;;;;;;10.38;8.30;;;16.60;99.90;;;-141.84;75.18;20702.09;5037209;28;20309;-65
2023/09/09 02:41:24;;;;;;;10.68;8.65;;;16.50;99.90;;;-141.84;74.59;20628.91;5044613;28;20241;-65
2023/09/09 02:43:52;;;;;;;8.70;7.80;;;16.60;99.90;;;-141.84;75.15;20612.63;5044638;28;20240;-65
2023/09/09 02:46:22;;;;;;;9.50;8.50;;;16.60;99.90;;;-141.84;75.45;20675.66;5044572;28;20783;-66
2023/09/09 02:48:50;;;;;;;9.25;7.95;;;16.60;99.90;;;-141.84;75.85;20612.63;5036942;28;20624;-65
2023/09/09 02:51:20;;;;;;;9.35;8.43;;;16.50;99.90;;;-141.84;75.40;20635.00;5044395;28;20217;-64
2023/09/09 02:53:48;;;;;;;9.77;8.30;;;16.50;99.90;;;-141.84;75.24;20651.25;5029531;28;20221;-64
2023/09/09 02:56:17;;;;;;;11.02;8.48;;;16.50;99.90;;;-141.84;75.08;20651.25;5044282;28;20231;-66
2023/09/09 02:58:45;;;;;;;9.30;8.25;;;16.50;99.90;;;-141.84;74.79;20651.25;5036882;28;20328;-65
2023/09/09 03:01:13;;;;;;;9.55;8.65;;;16.50;99.90;;;-141.84;74.86;20614.66;5044939;28;20269;-65
2023/09/09 03:03:41;;;;;;;9.57;8.68;;;16.50;99.90;;;-141.84;75.38;20610.59;5045072;28;20600;-65
2023/09/09 03:06:11;;;;;;;9.60;7.85;;;16.50;99.90;;;-141.84;75.45;20602.47;5044165;28;20209;-65
2023/09/09 03:08:41;;;;;;;9.70;8.38;;;16.50;99.90;;;-141.84;75.67;20598.41;5040953;28;20209;-65
2023/09/09 03:11:09;;;;;;;10.35;9.25;;;16.40;99.90;;;-141.84;75.85;20612.63;5043481;28;20312;-65
2023/09/09 03:13:37;;;;;;;9.30;8.20;;;16.40;99.90;;;-141.84;75.42;20610.59;5044391;28;20320;-65
2023/09/09 03:16:06;;;;;;;10.77;9.40;;;16.40;99.90;;;-141.84;75.51;20598.41;5039301;28;20240;-64
2023/09/09 03:18:34;;;;;;;10.50;9.40;;;16.40;99.90;;;-141.84;75.15;20584.19;5041880;28;20268;-65
2023/09/09 03:21:03;;;;;;;9.40;8.50;;;16.30;99.90;;;-141.84;75.33;20594.34;5037381;28;20517;-66
2023/09/09 03:23:33;;;;;;;11.27;9.30;;;16.30;99.90;;;-141.84;75.93;20574.00;5046793;28;20205;-65
2023/09/09 03:26:04;;;;;;;10.32;9.32;;;16.30;99.90;;;-141.84;75.79;20588.25;5044369;28;20225;-65
2023/09/09 03:28:32;;;;;;;12.30;10.38;;;16.30;99.90;;;-141.84;75.68;20567.91;5044481;28;20229;-65
2023/09/09 03:31:01;;;;;;;10.50;9.20;;;16.30;99.90;;;-141.84;75.72;20576.03;5036326;28;20730;-65
2023/09/09 03:33:30;;;;;;;10.95;9.70;;;16.30;99.90;;;-141.84;75.29;20588.25;5045182;28;20221;-65
2023/09/09 03:35:59;;;;;;;10.70;9.30;;;16.30;99.90;;;-141.84;75.02;20667.53;5044604;28;20976;-64
2023/09/09 03:38:27;;;;;;;10.50;9.50;;;16.30;99.90;;;-141.84;74.67;20618.72;5044849;28;20232;-66
2023/09/09 03:40:55;;;;;;;10.85;9.40;;;16.30;99.90;;;-141.84;74.04;20616.69;5036457;28;20249;-65
2023/09/09 03:43:25;;;;;;;10.23;9.23;;;16.40;99.90;;;-141.84;74.99;20586.22;5044435;28;20229;-65
2023/09/09 03:45:55;;;;;;;10.50;9.40;;;16.40;99.90;;;-141.84;75.68;20602.47;5044240;28;20717;-65
2023/09/09 03:48:24;;;;;;;11.98;9.63;;;16.30;99.90;;;-141.84;75.85;20565.88;5040289;28;20300;-65
2023/09/09 03:50:57;;;;;;;10.95;9.75;;;16.30;99.90;;;-141.84;75.82;20596.38;5017760;28;20206;-65
2023/09/09 03:53:25;;;;;;;10.05;9.02;;;16.20;99.90;;;-141.84;75.64;20563.84;5025042;28;20401;-65
2023/09/09 03:55:53;;;;;;;11.13;9.27;;;16.20;99.90;;;-141.84;75.89;20567.91;5040369;28;20221;-65
2023/09/09 03:58:24;;;;;;;10.40;9.38;;;16.20;99.90;;;-141.84;75.75;20569.94;5044661;28;20229;-65
2023/09/09 04:01:07;;;;;;;12.05;9.40;;;16.20;99.90;;;-141.84;75.93;20533.34;5036543;28;20581;-65
2023/09/09 04:03:37;;;;;;;10.65;9.55;;;16.10;99.90;;;-141.84;76.14;20537.44;5044143;28;20225;-65
2023/09/09 04:06:11;;;;;;;10.73;9.27;;;16.20;99.90;;;-141.84;76.07;20537.44;5044808;28;20676;-64
2023/09/09 04:08:41;;;;;;;10.63;9.52;;;16.10;99.90;;;-141.84;76.05;20504.91;5039591;28;20666;-66
2023/09/09 04:11:09;;;;;;;10.50;9.23;;;16.10;99.90;;;-141.84;76.25;20531.31;5043541;28;20221;-65
2023/09/09 04:13:40;;;;;;;10.80;9.70;;;16.10;99.90;;;-141.84;76.86;20521.16;5043594;28;20229;-65
2023/09/09 04:16:09;;;;;;;10.38;9.30;;;16.00;99.90;;;-141.84;76.71;20523.19;5043416;28;20229;-65
2023/09/09 04:18:38;;;;;;;10.13;9.13;;;16.10;99.90;;;-141.84;76.81;20569.94;5039299;28;20281;-64
2023/09/09 04:21:14;;;;;;;10.30;8.15;;;16.00;99.90;;;-141.84;76.76;20515.06;5043958;28;20217;-65
2023/09/09 04:23:42;;;;;;;9.73;8.73;;;16.10;99.90;;;-141.84;76.77;20504.91;5043957;28;20762;-65
2023/09/09 04:26:11;;;;;;;10.63;9.55;;;16.10;99.90;;;-141.84;76.73;20515.06;5043004;28;20777;-66
2023/09/09 04:28:41;;;;;;;10.68;8.82;;;16.00;99.90;;;-141.84;76.46;20535.41;5040038;28;20247;-66
2023/09/09 04:31:09;;;;;;;9.15;8.25;;;16.10;99.90;;;-141.84;76.37;20535.41;5043216;28;20335;-65
2023/09/09 04:33:37;;;;;;;9.30;8.40;;;16.10;99.90;;;-141.84;76.64;20496.78;5043409;28;20602;-65
2023/09/09 04:36:06;;;;;;;9.95;8.30;;;16.10;99.90;;;-141.84;76.93;20496.78;5043715;28;20236;-65
2023/09/09 04:38:34;;;;;;;9.57;8.68;;;16.10;99.90;;;-141.84;76.99;20539.47;5043563;28;20213;-64
2023/09/09 04:41:02;;;;;;;9.98;9.07;;;16.10;99.90;;;-141.84;76.40;20513.03;5035528;28;20261;-65
2023/09/09 04:43:30;;;;;;;9.75;8.75;;;16.10;99.90;;;-141.84;76.40;20515.06;5042999;28;20286;-64
2023/09/09 04:46:00;;;;;;;10.43;9.15;;;16.10;99.90;;;-141.84;76.40;20527.25;5028007;28;20249;-66
2023/09/09 04:48:28;;;;;;;9.63;8.63;;;16.10;99.90;;;-141.84;76.06;20511.00;5023520;28;20292;-65
2023/09/09 04:50:56;;;;;;;9.68;8.77;;;16.20;99.90;;;-141.84;76.30;20504.91;5015905;28;20213;-65
2023/09/09 04:53:25;;;;;;;9.50;8.55;;;16.20;99.90;;;-141.84;76.20;20557.75;5023316;28;20775;-66
2023/09/09 04:55:53;;;;;;;9.57;8.65;;;16.20;99.90;;;-141.84;76.10;20571.97;5036248;28;20294;-65
2023/09/09 04:58:21;;;;;;;9.45;8.15;;;16.30;99.90;;;-141.84;75.66;20551.66;5042159;28;20315;-65
2023/09/09 05:00:49;;;;;;;9.50;8.50;;;16.30;99.90;;;-141.84;75.66;20545.56;5034151;28;20290;-66
2023/09/09 05:03:19;;;;;;;9.40;8.30;;;16.40;99.90;;;-141.84;74.90;20612.63;5042209;28;20321;-65
2023/09/09 05:05:47;;;;;;;11.27;8.68;;;16.40;99.90;;;-141.84;75.29;20594.34;5042912;28;20581;-65
2023/09/09 05:08:16;;;;;;;9.57;8.68;;;16.40;99.90;;;-141.84;74.87;20602.47;5042121;28;20225;-65
2023/09/09 05:10:45;;;;;;;9.70;8.00;;;16.50;99.90;;;-141.84;74.83;20618.72;5033529;28;20650;-65
2023/09/09 05:13:13;;;;;;;8.73;7.82;;;16.60;99.90;;;-141.84;75.01;20616.69;5041971;28;20233;-64
2023/09/09 05:15:41;;;;;;;8.57;7.68;;;16.60;99.90;;;-141.84;74.79;20616.69;5042506;28;20232;-65
2023/09/09 05:18:10;;;;;;;9.27;8.38;;;16.70;99.90;;;-141.84;74.10;20695.97;5039111;28;20258;-65
2023/09/09 05:20:39;;;;;;;9.52;8.48;;;16.70;99.90;;;-141.84;74.00;20647.19;5040944;28;20301;-65
2023/09/09 05:23:07;;;;;;;9.00;8.20;;;16.80;99.90;;;-141.84;74.06;20681.75;5042047;28;20247;-65
2023/09/09 05:25:36;;;;;;;9.27;8.38;;;16.90;99.90;;;-141.84;73.64;20693.94;5041809;28;20675;-65
2023/09/09 05:28:04;;;;;;;8.70;7.80;;;17.00;99.90;;;-141.84;73.34;20716.31;5041724;28;20252;-66
2023/09/09 05:30:33;;;;;;;9.55;8.60;;;17.20;99.90;;;-141.84;72.06;20781.38;5041341;28;20578;-65
2023/09/09 05:33:01;;;;;;;8.52;7.63;;;17.40;99.90;;;-141.84;71.91;20830.16;5033972;28;20279;-66
2023/09/09 05:35:29;;;;;;;8.60;7.75;;;17.50;99.90;;;-141.84;71.41;20797.63;5042554;28;20463;-66
2023/09/09 05:37:59;;;;;;;7.75;7.05;;;17.70;99.90;;;-141.84;70.89;20850.47;5046009;28;20347;-65
2023/09/09 05:40:27;;;;;;;8.38;7.50;;;17.90;99.90;;;-141.84;70.48;20858.59;5045382;28;20272;-64
2023/09/09 05:42:55;;;;;;;7.75;6.88;;;18.00;99.90;;;-141.84;70.16;20862.69;5037690;28;20240;-65
2023/09/09 05:45:24;;;;;;;8.77;7.57;;;18.20;99.90;;;-141.84;69.50;20982.63;5045906;28;20228;-65
2023/09/09 05:47:52;;;;;;;9.23;7.50;;;18.30;99.90;;;-141.84;69.54;20929.75;5046052;28;20213;-65
2023/09/09 05:50:21;;;;;;;7.45;6.65;;;18.40;99.90;;;-141.84;69.06;20974.50;5045787;28;20266;-65
2023/09/09 05:52:49;;;;;;;10.07;7.80;;;18.50;99.90;;;-141.84;68.41;20986.69;5037847;28;20248;-64
2023/09/09 05:55:18;;;;;;;7.65;6.72;;;18.60;99.90;;;-141.84;68.27;20948.06;5044839;28;20248;-65
2023/09/09 05:57:47;;;;;;;8.55;7.65;;;18.60;99.90;;;-141.84;67.97;21004.97;5045495;28;20772;-66
2023/09/09 06:00:15;;;;;;;8.00;7.20;;;18.70;99.90;;;-141.84;67.65;21033.44;5045371;28;20291;-66
2023/09/09 06:02:44;;;;;;;7.45;6.75;;;18.80;99.90;;;-141.84;67.57;21053.78;5038615;28;20263;-64
2023/09/09 06:05:13;;;;;;;7.85;7.13;;;18.90;99.90;;;-141.84;67.12;21057.84;5045557;28;20237;-65
2023/09/09 06:07:42;;;;;;;7.85;7.05;;;18.90;99.90;;;-141.84;66.68;21061.91;5045675;28;20224;-66
2023/09/09 06:10:10;;;;;;;7.43;6.72;;;19.00;99.90;;;-141.84;66.09;21104.59;5045086;28;20256;-64
2023/09/09 06:12:40;;;;;;;7.38;6.68;;;19.10;99.90;;;-141.84;65.87;21114.75;5041947;28;20257;-65
2023/09/09 06:15:10;;;;;;;7.95;7.15;;;19.20;99.90;;;-141.84;65.10;21137.13;5042807;28;20583;-64
2023/09/09 06:17:39;;;;;;;7.60;6.70;;;19.30;99.90;;;-141.84;64.59;21187.97;5045777;28;20202;-64
2023/09/09 06:20:10;;;;;;;8.07;6.85;;;19.40;99.90;;;-141.84;63.45;21192.03;5044886;28;20236;-66
2023/09/09 06:22:38;;;;;;;7.07;6.38;;;19.50;99.90;;;-141.84;63.92;21226.59;5043336;28;20312;-65
2023/09/09 06:25:08;;;;;;;6.53;5.85;;;19.60;99.90;;;-141.84;63.87;21224.56;5044638;28;20398;-66
2023/09/09 06:27:36;;;;;;;7.68;6.97;;;19.60;99.90;;;-141.84;63.44;21255.03;5044656;28;20225;-65
2023/09/09 06:30:08;;;;;;;7.20;6.60;;;19.70;99.90;;;-141.84;63.05;21220.47;5044866;28;20233;-64
2023/09/09 06:32:36;;;;;;;9.40;7.07;;;19.70;99.90;;;-141.84;62.80;21255.03;5045383;28;20229;-65
2023/09/09 06:35:07;;;;;;;8.13;7.13;;;19.80;99.90;;;-141.84;62.75;21242.84;5041609;28;20236;-66
2023/09/09 06:37:35;;;;;;;7.13;6.18;;;19.80;99.90;;;-141.84;62.32;21253.00;5036250;28;20690;-65
2023/09/09 06:40:03;;;;;;;7.28;6.10;;;19.80;99.90;;;-141.84;62.77;21285.53;5031986;28;20264;-65
2023/09/09 06:42:32;;;;;;;7.32;6.63;;;19.80;99.90;;;-141.84;62.55;21293.69;5044101;28;20233;-66
2023/09/09 06:45:01;;;;;;;7.57;6.68;;;19.80;99.90;;;-141.84;62.48;21326.22;5035965;28;20221;-65
2023/09/09 06:47:30;;;;;;;7.88;7.07;;;19.90;99.90;;;-141.84;62.53;21271.31;5044935;28;20209;-65
2023/09/09 06:49:58;;;;;;;8.63;6.78;;;19.90;99.90;;;-141.84;62.46;21326.22;5044425;28;20712;-66
2023/09/09 06:52:26;;;;;;;7.30;6.45;;;20.00;99.90;;;-141.84;62.51;21320.09;5044517;28;20256;-65
2023/09/09 06:54:55;;;;;;;7.60;6.43;;;20.00;99.90;;;-141.84;62.32;21314.00;5036503;28;20520;-64
2023/09/09 06:57:23;;;;;;;6.85;6.15;;;20.00;99.90;;;-141.84;61.71;21360.78;5044118;28;20229;-66
2023/09/09 06:59:51;;;;;;;20.48;15.70;;;20.20;99.90;;;-141.84;60.65;21375.00;5044430;28;20255;-66
2023/09/09 07:02:19;;;;;;;9.25;7.88;;;20.20;99.90;;;-141.84;60.16;21413.63;5043777;28;20260;-65
2023/09/09 07:04:49;;;;;;;7.35;6.63;;;20.30;99.90;;;-141.84;59.74;21472.59;5036341;28;20256;-68
2023/09/09 07:07:17;;;;;;;8.77;6.70;;;20.40;99.90;;;-141.84;57.22;21598.66;5044107;28;20225;-66
2023/09/09 07:09:48;;;;;;;7.50;6.80;;;20.80;99.90;;;-141.84;56.59;21686.09;5044821;28;20221;-66
2023/09/09 07:12:16;;;;;;;6.90;6.30;;;21.00;99.90;;;-141.84;56.67;21629.16;5044034;28;20233;-66
2023/09/09 07:14:44;;;;;;;6.90;6.22;;;21.20;99.90;;;-141.84;56.32;21649.50;5036832;28;20213;-65
2023/09/09 07:17:13;;;;;;;7.25;6.47;;;21.30;99.90;;;-141.84;56.72;21635.25;5032861;28;20768;-67
2023/09/09 07:19:41;;;;;;;6.50;5.90;;;21.30;99.90;;;-141.84;55.86;21643.38;5044295;28;20316;-66
2023/09/09 07:22:11;;;;;;;6.63;6.03;;;21.30;99.90;;;-141.84;55.57;21647.47;5044282;28;20255;-66
2023/09/09 07:24:39;;;;;;;7.07;6.10;;;21.30;99.90;;;-141.84;54.96;21698.28;5039914;28;20247;-64
2023/09/09 07:27:07;;;;;;;6.63;5.90;;;21.40;99.90;;;-141.84;54.48;21720.66;5043955;28;20284;-67
2023/09/09 07:29:36;;;;;;;5.80;5.30;;;21.40;99.90;;;-141.84;54.48;21710.50;5044316;28;20274;-65
2023/09/09 07:32:04;;;;;;;6.60;6.00;;;21.40;99.90;;;-141.84;54.62;21698.28;5043736;28;20241;-65
2023/09/09 07:34:34;;;;;;;7.03;6.32;;;21.40;99.90;;;-141.84;53.70;21730.81;5029726;28;20237;-65
2023/09/09 07:37:02;;;;;;;7.72;6.50;;;21.50;99.90;;;-141.84;53.68;21775.56;5016208;28;20237;-66
2023/09/09 07:39:44;;;;;;;8.00;6.20;;;21.60;99.90;;;-141.84;53.79;21783.69;5026801;28;20815;-64
2023/09/09 07:42:13;;;;;;;6.05;5.43;;;21.70;99.90;;;-141.84;53.71;21789.78;5042970;28;20677;-65
2023/09/09 07:44:42;;;;;;;6.28;5.68;;;21.80;99.90;;;-141.84;53.43;21822.31;5035717;28;20229;-66
2023/09/09 07:47:11;;;;;;;6.05;5.45;;;21.80;99.90;;;-141.84;52.84;21858.94;5043173;28;20275;-66
2023/09/09 07:49:39;;;;;;;7.63;6.93;;;21.90;99.90;;;-141.84;53.13;21834.53;5043581;28;20754;-66
2023/09/09 07:52:10;;;;;;;6.57;5.97;;;21.90;99.90;;;-141.84;52.91;21840.63;5043781;28;20540;-64
2023/09/09 07:54:43;;;;;;;7.80;5.70;;;21.90;99.90;;;-141.84;53.22;21891.47;5040843;28;20642;-67
2023/09/09 07:57:11;;;;;;;6.35;5.30;;;22.00;99.90;;;-141.84;53.29;21891.47;5043272;28;20292;-65
2023/09/09 07:59:40;;;;;;;5.80;5.25;;;22.00;99.90;;;-141.84;53.01;21871.13;5042101;28;20251;-64
2023/09/09 08:02:08;;;;;;;7.03;6.30;;;22.10;99.90;;;-141.84;52.02;21921.97;5042784;28;20282;-66
2023/09/09 08:04:37;;;;;;;5.95;5.40;;;22.10;99.90;;;-141.84;51.92;21905.69;5042716;28;20237;-63
2023/09/09 08:07:06;;;;;;;7.18;6.45;;;22.20;99.90;;;-141.84;51.42;21958.56;5038917;28;20225;-65
2023/09/09 08:09:34;;;;;;;5.90;5.40;;;22.20;99.90;;;-141.84;51.88;21952.47;5042937;28;20229;-66
2023/09/09 08:12:04;;;;;;;9.20;5.90;;;22.30;99.90;;;-141.84;50.78;21960.59;5042145;28;20266;-66
2023/09/09 08:14:33;;;;;;;6.82;6.10;;;22.40;99.90;;;-141.84;50.87;21993.13;5043449;28;20244;-64
2023/09/09 08:17:01;;;;;;;7.88;6.10;;;22.50;99.90;;;-141.84;50.82;22013.47;5034506;28;20261;-64
2023/09/09 08:19:30;;;;;;;6.72;5.78;;;22.60;99.90;;;-141.84;50.84;22033.81;5042784;28;20296;-64
2023/09/09 08:21:58;;;;;;;6.75;6.05;;;22.60;99.90;;;-141.84;50.97;22062.28;5042350;28;20235;-64
2023/09/09 08:24:26;;;;;;;7.15;5.82;;;22.70;99.90;;;-141.84;50.05;22084.66;5042057;28;20315;-64
2023/09/09 08:26:54;;;;;;;8.52;6.10;;;22.80;99.90;;;-141.84;50.72;22143.63;5034243;28;20568;-65
2023/09/09 08:29:24;;;;;;;6.93;5.82;;;22.90;99.90;;;-141.84;50.52;22117.19;5040545;28;20283;-64
2023/09/09 08:31:53;;;;;;;6.30;5.75;;;23.00;99.90;;;-141.84;50.83;22131.41;5021425;28;20316;-65
2023/09/09 08:34:21;;;;;;;6.53;5.80;;;23.00;99.90;;;-141.84;51.21;22139.56;5022591;28;20745;-64
2023/09/09 08:36:49;;;;;;;6.57;5.85;;;23.00;99.90;;;-141.84;50.76;22159.88;5015063;28;20411;-68
2023/09/09 08:39:19;;;;;;;7.95;6.07;;;23.00;99.90;;;-141.84;49.86;22149.72;5022981;28;20312;-64
2023/09/09 08:42:00;;;;;;;6.35;5.78;;;23.10;99.90;;;-141.84;49.83;22176.16;5042803;28;20198;-65
2023/09/09 08:44:49;;;;;;;7.13;6.43;;;23.20;99.90;;;-141.84;49.50;22237.16;5042428;28;20666;-65
2023/09/09 08:47:20;;;;;;;5.80;5.30;;;23.30;99.90;;;-141.84;49.19;22251.41;5041955;28;20236;-66
2023/09/09 08:49:54;;;;;;;6.07;5.55;;;23.40;99.90;;;-141.84;49.09;22285.97;5042679;28;20316;-65
2023/09/09 08:52:27;;;;;;;7.85;5.85;;;23.50;99.90;;;-141.84;48.35;22298.16;5042627;28;20304;-65
2023/09/09 08:54:56;;;;;;;7.30;5.80;;;23.60;99.90;;;-141.84;48.10;22304.28;5034365;28;20237;-65
2023/09/09 08:57:25;;;;;;;6.30;5.70;;;23.60;99.90;;;-141.84;48.08;22359.19;5042033;28;20240;-68
2023/09/09 08:59:58;;;;;;;7.70;5.70;;;23.70;99.90;;;-141.84;47.72;22359.19;5042646;28;20205;-69
2023/09/09 09:02:29;;;;;;;6.40;5.80;;;23.70;99.90;;;-141.84;47.71;22334.78;5042341;28;20652;-66
2023/09/09 09:04:59;;;;;;;5.97;5.40;;;23.80;99.90;;;-141.84;47.61;22367.31;5034806;28;20317;-68
2023/09/09 09:07:28;;;;;;;6.45;5.85;;;23.90;99.90;;;-141.84;47.24;22389.69;5042236;28;20229;-68
2023/09/09 09:09:57;;;;;;;6.28;5.68;;;23.90;99.90;;;-141.84;47.57;22379.53;5037604;28;20228;-67
2023/09/09 09:12:28;;;;;;;6.15;5.18;;;24.00;99.90;;;-141.84;47.41;22412.06;5037990;28;20279;-66
2023/09/09 09:14:58;;;;;;;6.75;5.43;;;24.00;99.90;;;-141.84;46.46;22393.75;5036831;28;20267;-67
2023/09/09 09:17:26;;;;;;;6.30;5.70;;;24.00;99.90;;;-141.84;46.22;22405.97;5044996;28;20251;-65
2023/09/09 09:19:55;;;;;;;6.40;5.80;;;24.10;99.90;;;-141.84;46.52;22448.66;5046245;28;20660;-65
2023/09/09 09:22:24;;;;;;;5.70;4.95;;;24.20;99.90;;;-141.84;45.92;22519.84;5042315;28;20226;-65
2023/09/09 09:24:52;;;;;;;6.13;5.30;;;24.30;99.90;;;-141.84;45.51;22485.28;5033872;28;20313;-65
2023/09/09 09:27:20;;;;;;;5.78;5.20;;;24.40;99.90;;;-141.84;44.98;22534.09;5041099;28;20747;-65
2023/09/09 09:29:49;;;;;;;6.10;5.50;;;24.50;99.90;;;-141.84;44.62;22584.94;5045701;28;20232;-65
2023/09/09 09:32:21;;;;;;;5.80;5.20;;;24.60;99.90;;;-141.84;44.79;22629.66;5045589;28;20237;-65
2023/09/09 09:34:50;;;;;;;5.75;5.15;;;24.70;99.90;;;-141.84;44.84;22623.56;5039017;28;20233;-66
2023/09/09 09:37:19;;;;;;;5.97;5.38;;;24.80;99.90;;;-141.84;45.06;22641.88;5046076;28;20236;-65
2023/09/09 09:39:47;;;;;;;6.50;5.40;;;24.80;99.90;;;-141.84;44.38;22662.22;5038421;28;20252;-64
2023/09/09 09:42:15;;;;;;;8.98;5.18;;;24.90;99.90;;;-141.84;44.42;22694.75;5025469;28;20210;-67
2023/09/09 09:44:44;;;;;;;6.03;5.50;;;24.90;99.90;;;-141.84;44.47;22733.41;5017868;28;20226;-65
2023/09/09 09:47:12;;;;;;;6.03;5.47;;;25.00;99.90;;;-141.84;43.36;22772.03;5045873;28;20263;-66
2023/09/09 09:49:44;;;;;;;6.75;5.35;;;25.10;99.90;;;-141.84;43.68;22780.19;5045804;28;20579;-66
2023/09/09 09:52:24;;;;;;;5.68;5.00;;;25.10;99.90;;;-141.84;43.80;22790.34;5045925;28;20233;-66
2023/09/09 09:54:53;;;;;;;5.80;5.32;;;25.20;99.90;;;-141.84;43.51;22786.28;5037708;28;20225;-65
2023/09/09 09:57:22;;;;;;;5.93;5.32;;;25.20;99.90;;;-141.84;43.28;22774.06;5043680;28;20229;-66
2023/09/09 09:59:50;;;;;;;6.53;5.53;;;25.20;99.90;;;-141.84;43.44;22798.47;5045133;28;20202;-65
2023/09/09 10:02:20;;;;;;;6.60;5.47;;;25.20;99.90;;;-141.84;43.32;22792.38;5041599;28;21080;-65
2023/09/09 10:04:54;;;;;;;6.32;5.28;;;25.30;99.90;;;-141.84;43.07;22790.34;5034221;28;20224;-66
2023/09/09 10:07:26;;;;;;;6.07;4.88;;;25.40;99.90;;;-141.84;43.49;22814.75;5041182;28;20693;-65
2023/09/09 10:10:00;;;;;;;6.85;5.40;;;25.40;99.90;;;-141.84;44.26;22849.34;5045011;28;20229;-65
2023/09/09 10:12:38;;;;;;;5.82;5.32;;;25.50;99.90;;;-141.84;44.24;22853.41;5044099;28;20393;-65